sensor_id;sensor_type;location;lat;lon;timestamp;P1;durP1;ratioP1;P2;durP2;ratioP2
53833;SDS011;39735;51.432;5.482;2023-05-21T00:00:22;10.68;;;3.88;;
53833;SDS011;39735;51.432;5.482;2023-05-21T00:03:47;13.37;;;4.13;;
53833;SDS011;39735;51.432;5.482;2023-05-21T00:07:11;4.40;;;4.10;;
53833;SDS011;39735;51.432;5.482;2023-05-21T00:10:35;11.93;;;3.95;;
53833;SDS011;39735;51.432;5.482;2023-05-21T00:13:59;7.35;;;5.32;;
53833;SDS011;39735;51.432;5.482;2023-05-21T00:17:24;4.75;;;4.30;;
53833;SDS011;39735;51.432;5.482;2023-05-21T00:20:49;10.15;;;5.22;;
53833;SDS011;39735;51.432;5.482;2023-05-21T00:24:13;6.30;;;4.35;;
53833;SDS011;39735;51.432;5.482;2023-05-21T00:27:37;13.15;;;4.63;;
53833;SDS011;39735;51.432;5.482;2023-05-21T00:31:01;7.15;;;4.05;;
53833;SDS011;39735;51.432;5.482;2023-05-21T00:34:25;5.30;;;3.83;;
53833;SDS011;39735;51.432;5.482;2023-05-21T00:37:49;7.95;;;5.30;;
53833;SDS011;39735;51.432;5.482;2023-05-21T00:41:13;4.00;;;3.80;;
53833;SDS011;39735;51.432;5.482;2023-05-21T00:44:42;4.65;;;4.25;;
53833;SDS011;39735;51.432;5.482;2023-05-21T00:48:10;14.27;;;4.70;;
53833;SDS011;39735;51.432;5.482;2023-05-21T00:51:35;6.40;;;3.53;;
53833;SDS011;39735;51.432;5.482;2023-05-21T00:55:05;10.38;;;4.45;;
53833;SDS011;39735;51.432;5.482;2023-05-21T00:58:30;8.30;;;3.95;;
53833;SDS011;39735;51.432;5.482;2023-05-21T01:01:55;12.97;;;6.63;;
53833;SDS011;39735;51.432;5.482;2023-05-21T01:05:19;6.15;;;5.55;;
53833;SDS011;39735;51.432;5.482;2023-05-21T01:08:44;5.45;;;4.95;;
53833;SDS011;39735;51.432;5.482;2023-05-21T01:12:08;5.97;;;4.70;;
53833;SDS011;39735;51.432;5.482;2023-05-21T01:15:33;16.75;;;3.90;;
53833;SDS011;39735;51.432;5.482;2023-05-21T01:18:57;16.40;;;4.85;;
53833;SDS011;39735;51.432;5.482;2023-05-21T01:22:24;6.38;;;4.85;;
53833;SDS011;39735;51.432;5.482;2023-05-21T01:25:48;5.90;;;4.57;;
53833;SDS011;39735;51.432;5.482;2023-05-21T01:29:13;32.85;;;6.10;;
53833;SDS011;39735;51.432;5.482;2023-05-21T01:32:39;8.38;;;4.85;;
53833;SDS011;39735;51.432;5.482;2023-05-21T01:36:17;6.03;;;5.50;;
53833;SDS011;39735;51.432;5.482;2023-05-21T01:39:54;16.25;;;5.68;;
53833;SDS011;39735;51.432;5.482;2023-05-21T01:43:22;5.35;;;5.00;;
53833;SDS011;39735;51.432;5.482;2023-05-21T01:46:47;8.43;;;6.85;;
53833;SDS011;39735;51.432;5.482;2023-05-21T01:50:13;11.10;;;6.57;;
53833;SDS011;39735;51.432;5.482;2023-05-21T01:53:37;8.93;;;5.45;;
53833;SDS011;39735;51.432;5.482;2023-05-21T01:57:01;12.00;;;6.85;;
53833;SDS011;39735;51.432;5.482;2023-05-21T02:00:25;10.90;;;6.95;;
53833;SDS011;39735;51.432;5.482;2023-05-21T02:03:50;20.38;;;6.30;;
53833;SDS011;39735;51.432;5.482;2023-05-21T02:07:15;13.77;;;6.65;;
53833;SDS011;39735;51.432;5.482;2023-05-21T02:10:39;11.60;;;6.15;;
53833;SDS011;39735;51.432;5.482;2023-05-21T02:14:03;11.45;;;6.38;;
53833;SDS011;39735;51.432;5.482;2023-05-21T02:17:27;7.75;;;6.32;;
53833;SDS011;39735;51.432;5.482;2023-05-21T02:20:53;9.13;;;6.47;;
53833;SDS011;39735;51.432;5.482;2023-05-21T02:24:17;6.93;;;5.07;;
53833;SDS011;39735;51.432;5.482;2023-05-21T02:27:42;10.87;;;5.43;;
53833;SDS011;39735;51.432;5.482;2023-05-21T02:31:06;8.82;;;5.70;;
53833;SDS011;39735;51.432;5.482;2023-05-21T02:34:30;15.23;;;4.43;;
53833;SDS011;39735;51.432;5.482;2023-05-21T02:37:54;16.90;;;5.97;;
53833;SDS011;39735;51.432;5.482;2023-05-21T02:41:19;7.60;;;5.28;;
53833;SDS011;39735;51.432;5.482;2023-05-21T02:44:43;6.75;;;5.07;;
53833;SDS011;39735;51.432;5.482;2023-05-21T02:48:07;11.50;;;4.60;;
53833;SDS011;39735;51.432;5.482;2023-05-21T02:51:31;12.32;;;6.03;;
53833;SDS011;39735;51.432;5.482;2023-05-21T02:54:55;12.93;;;6.13;;
53833;SDS011;39735;51.432;5.482;2023-05-21T02:58:19;9.95;;;4.97;;
53833;SDS011;39735;51.432;5.482;2023-05-21T03:01:42;11.27;;;4.85;;
53833;SDS011;39735;51.432;5.482;2023-05-21T03:05:06;16.75;;;5.72;;
53833;SDS011;39735;51.432;5.482;2023-05-21T03:08:34;4.05;;;3.67;;
53833;SDS011;39735;51.432;5.482;2023-05-21T03:11:58;16.83;;;4.90;;
53833;SDS011;39735;51.432;5.482;2023-05-21T03:15:21;9.70;;;4.30;;
53833;SDS011;39735;51.432;5.482;2023-05-21T03:18:46;7.85;;;5.38;;
53833;SDS011;39735;51.432;5.482;2023-05-21T03:22:10;6.78;;;5.85;;
53833;SDS011;39735;51.432;5.482;2023-05-21T03:25:36;5.00;;;4.32;;
53833;SDS011;39735;51.432;5.482;2023-05-21T03:29:00;9.20;;;5.72;;
53833;SDS011;39735;51.432;5.482;2023-05-21T03:32:24;4.93;;;4.28;;
53833;SDS011;39735;51.432;5.482;2023-05-21T03:35:48;10.73;;;5.03;;
53833;SDS011;39735;51.432;5.482;2023-05-21T03:39:12;8.63;;;4.45;;
53833;SDS011;39735;51.432;5.482;2023-05-21T03:42:36;15.18;;;4.85;;
53833;SDS011;39735;51.432;5.482;2023-05-21T03:46:00;7.65;;;4.50;;
53833;SDS011;39735;51.432;5.482;2023-05-21T03:49:24;6.43;;;4.20;;
53833;SDS011;39735;51.432;5.482;2023-05-21T03:52:48;5.68;;;4.45;;
53833;SDS011;39735;51.432;5.482;2023-05-21T03:56:12;9.27;;;5.68;;
53833;SDS011;39735;51.432;5.482;2023-05-21T03:59:35;4.60;;;4.20;;
53833;SDS011;39735;51.432;5.482;2023-05-21T04:03:01;5.68;;;4.53;;
53833;SDS011;39735;51.432;5.482;2023-05-21T04:06:25;11.40;;;4.05;;
53833;SDS011;39735;51.432;5.482;2023-05-21T04:09:51;8.52;;;4.75;;
53833;SDS011;39735;51.432;5.482;2023-05-21T04:13:15;16.67;;;6.40;;
53833;SDS011;39735;51.432;5.482;2023-05-21T04:16:38;9.07;;;5.68;;
53833;SDS011;39735;51.432;5.482;2023-05-21T04:20:03;7.05;;;4.68;;
53833;SDS011;39735;51.432;5.482;2023-05-21T04:23:28;6.20;;;5.55;;
53833;SDS011;39735;51.432;5.482;2023-05-21T04:26:51;6.18;;;4.38;;
53833;SDS011;39735;51.432;5.482;2023-05-21T04:30:18;19.77;;;5.70;;
53833;SDS011;39735;51.432;5.482;2023-05-21T04:33:42;8.50;;;4.47;;
53833;SDS011;39735;51.432;5.482;2023-05-21T04:37:06;7.53;;;5.22;;
53833;SDS011;39735;51.432;5.482;2023-05-21T04:40:30;13.35;;;5.28;;
53833;SDS011;39735;51.432;5.482;2023-05-21T04:43:54;17.48;;;5.55;;
53833;SDS011;39735;51.432;5.482;2023-05-21T04:47:19;31.20;;;6.20;;
53833;SDS011;39735;51.432;5.482;2023-05-21T04:50:44;7.67;;;5.57;;
53833;SDS011;39735;51.432;5.482;2023-05-21T04:54:08;5.43;;;4.93;;
53833;SDS011;39735;51.432;5.482;2023-05-21T04:57:32;8.75;;;5.30;;
53833;SDS011;39735;51.432;5.482;2023-05-21T05:00:58;9.27;;;5.03;;
53833;SDS011;39735;51.432;5.482;2023-05-21T05:04:22;6.18;;;5.65;;
53833;SDS011;39735;51.432;5.482;2023-05-21T05:07:46;6.15;;;5.18;;
53833;SDS011;39735;51.432;5.482;2023-05-21T05:11:12;6.93;;;5.10;;
53833;SDS011;39735;51.432;5.482;2023-05-21T05:14:36;5.07;;;4.68;;
53833;SDS011;39735;51.432;5.482;2023-05-21T05:18:00;8.13;;;6.15;;
53833;SDS011;39735;51.432;5.482;2023-05-21T05:21:24;8.45;;;5.72;;
53833;SDS011;39735;51.432;5.482;2023-05-21T05:24:48;6.82;;;5.65;;
53833;SDS011;39735;51.432;5.482;2023-05-21T05:28:12;7.95;;;4.63;;
53833;SDS011;39735;51.432;5.482;2023-05-21T05:31:35;13.82;;;5.43;;
53833;SDS011;39735;51.432;5.482;2023-05-21T05:35:00;18.88;;;6.65;;
53833;SDS011;39735;51.432;5.482;2023-05-21T05:38:24;10.13;;;5.32;;
53833;SDS011;39735;51.432;5.482;2023-05-21T05:41:48;5.68;;;5.25;;
53833;SDS011;39735;51.432;5.482;2023-05-21T05:45:13;6.40;;;4.28;;
53833;SDS011;39735;51.432;5.482;2023-05-21T05:48:37;8.50;;;6.95;;
53833;SDS011;39735;51.432;5.482;2023-05-21T05:52:01;8.40;;;5.55;;
53833;SDS011;39735;51.432;5.482;2023-05-21T05:55:25;9.93;;;6.75;;
53833;SDS011;39735;51.432;5.482;2023-05-21T05:58:49;12.50;;;6.97;;
53833;SDS011;39735;51.432;5.482;2023-05-21T06:02:13;8.05;;;6.72;;
53833;SDS011;39735;51.432;5.482;2023-05-21T06:05:37;5.70;;;4.95;;
53833;SDS011;39735;51.432;5.482;2023-05-21T06:09:01;13.98;;;7.35;;
53833;SDS011;39735;51.432;5.482;2023-05-21T06:12:25;12.82;;;7.18;;
53833;SDS011;39735;51.432;5.482;2023-05-21T06:15:49;9.07;;;6.97;;
53833;SDS011;39735;51.432;5.482;2023-05-21T06:19:13;8.75;;;6.60;;
53833;SDS011;39735;51.432;5.482;2023-05-21T06:22:37;9.30;;;5.95;;
53833;SDS011;39735;51.432;5.482;2023-05-21T06:26:02;8.07;;;7.35;;
53833;SDS011;39735;51.432;5.482;2023-05-21T06:29:26;9.93;;;6.90;;
53833;SDS011;39735;51.432;5.482;2023-05-21T06:32:50;8.00;;;6.82;;
53833;SDS011;39735;51.432;5.482;2023-05-21T06:36:14;18.23;;;6.28;;
53833;SDS011;39735;51.432;5.482;2023-05-21T06:39:38;14.50;;;8.30;;
53833;SDS011;39735;51.432;5.482;2023-05-21T06:43:02;10.75;;;7.88;;
53833;SDS011;39735;51.432;5.482;2023-05-21T06:46:25;7.15;;;6.45;;
53833;SDS011;39735;51.432;5.482;2023-05-21T06:49:49;7.93;;;7.07;;
53833;SDS011;39735;51.432;5.482;2023-05-21T06:53:13;9.93;;;7.80;;
53833;SDS011;39735;51.432;5.482;2023-05-21T06:56:37;9.25;;;8.30;;
53833;SDS011;39735;51.432;5.482;2023-05-21T07:00:01;9.15;;;7.95;;
53833;SDS011;39735;51.432;5.482;2023-05-21T07:03:25;11.52;;;8.02;;
53833;SDS011;39735;51.432;5.482;2023-05-21T07:06:49;14.05;;;8.32;;
53833;SDS011;39735;51.432;5.482;2023-05-21T07:10:13;12.23;;;7.78;;
53833;SDS011;39735;51.432;5.482;2023-05-21T07:13:37;11.95;;;8.93;;
53833;SDS011;39735;51.432;5.482;2023-05-21T07:17:01;10.77;;;7.72;;
53833;SDS011;39735;51.432;5.482;2023-05-21T07:20:25;11.52;;;7.85;;
53833;SDS011;39735;51.432;5.482;2023-05-21T07:23:49;10.07;;;7.82;;
53833;SDS011;39735;51.432;5.482;2023-05-21T07:27:13;9.95;;;8.25;;
53833;SDS011;39735;51.432;5.482;2023-05-21T07:30:36;16.50;;;9.02;;
53833;SDS011;39735;51.432;5.482;2023-05-21T07:34:00;18.52;;;9.18;;
53833;SDS011;39735;51.432;5.482;2023-05-21T07:37:27;11.32;;;8.68;;
53833;SDS011;39735;51.432;5.482;2023-05-21T07:40:51;11.48;;;10.43;;
53833;SDS011;39735;51.432;5.482;2023-05-21T07:44:15;12.50;;;9.10;;
53833;SDS011;39735;51.432;5.482;2023-05-21T07:47:38;9.48;;;8.55;;
53833;SDS011;39735;51.432;5.482;2023-05-21T07:51:03;16.40;;;9.52;;
53833;SDS011;39735;51.432;5.482;2023-05-21T07:54:27;12.38;;;10.07;;
53833;SDS011;39735;51.432;5.482;2023-05-21T07:57:51;26.08;;;11.07;;
53833;SDS011;39735;51.432;5.482;2023-05-21T08:01:14;15.25;;;9.30;;
53833;SDS011;39735;51.432;5.482;2023-05-21T08:04:38;18.98;;;10.38;;
53833;SDS011;39735;51.432;5.482;2023-05-21T08:08:02;23.27;;;10.88;;
53833;SDS011;39735;51.432;5.482;2023-05-21T08:11:27;13.18;;;9.55;;
53833;SDS011;39735;51.432;5.482;2023-05-21T08:14:51;12.32;;;9.85;;
53833;SDS011;39735;51.432;5.482;2023-05-21T08:18:14;13.52;;;11.38;;
53833;SDS011;39735;51.432;5.482;2023-05-21T08:21:38;28.38;;;11.13;;
53833;SDS011;39735;51.432;5.482;2023-05-21T08:25:02;21.65;;;9.90;;
53833;SDS011;39735;51.432;5.482;2023-05-21T08:28:26;56.35;;;13.23;;
53833;SDS011;39735;51.432;5.482;2023-05-21T08:31:50;11.27;;;10.00;;
53833;SDS011;39735;51.432;5.482;2023-05-21T08:35:14;15.40;;;10.40;;
53833;SDS011;39735;51.432;5.482;2023-05-21T08:38:38;13.85;;;11.20;;
53833;SDS011;39735;51.432;5.482;2023-05-21T08:45:59;16.23;;;11.48;;
53833;SDS011;39735;51.432;5.482;2023-05-21T08:49:25;14.88;;;11.63;;
53833;SDS011;39735;51.432;5.482;2023-05-21T08:52:50;25.20;;;12.13;;
53833;SDS011;39735;51.432;5.482;2023-05-21T08:56:16;18.85;;;12.48;;
53833;SDS011;39735;51.432;5.482;2023-05-21T08:59:40;15.63;;;11.75;;
53833;SDS011;39735;51.432;5.482;2023-05-21T09:03:04;15.00;;;10.90;;
53833;SDS011;39735;51.432;5.482;2023-05-21T09:06:28;13.40;;;11.88;;
53833;SDS011;39735;51.432;5.482;2023-05-21T09:09:54;16.38;;;11.55;;
53833;SDS011;39735;51.432;5.482;2023-05-21T09:13:18;15.48;;;13.00;;
53833;SDS011;39735;51.432;5.482;2023-05-21T09:16:44;22.35;;;14.07;;
53833;SDS011;39735;51.432;5.482;2023-05-21T09:20:11;12.05;;;10.40;;
53833;SDS011;39735;51.432;5.482;2023-05-21T09:23:55;14.27;;;11.02;;
53833;SDS011;39735;51.432;5.482;2023-05-21T09:27:19;21.20;;;12.05;;
53833;SDS011;39735;51.432;5.482;2023-05-21T09:30:47;18.25;;;13.05;;
53833;SDS011;39735;51.432;5.482;2023-05-21T09:34:11;15.93;;;13.00;;
53833;SDS011;39735;51.432;5.482;2023-05-21T09:37:40;19.20;;;12.02;;
53833;SDS011;39735;51.432;5.482;2023-05-21T09:41:04;15.45;;;11.60;;
53833;SDS011;39735;51.432;5.482;2023-05-21T09:44:28;19.45;;;12.50;;
53833;SDS011;39735;51.432;5.482;2023-05-21T09:47:53;16.83;;;12.38;;
53833;SDS011;39735;51.432;5.482;2023-05-21T09:51:18;22.08;;;12.48;;
53833;SDS011;39735;51.432;5.482;2023-05-21T09:54:53;17.23;;;12.23;;
53833;SDS011;39735;51.432;5.482;2023-05-21T09:58:18;20.13;;;13.80;;
53833;SDS011;39735;51.432;5.482;2023-05-21T10:01:41;17.30;;;11.55;;
53833;SDS011;39735;51.432;5.482;2023-05-21T10:05:07;43.83;;;14.45;;
53833;SDS011;39735;51.432;5.482;2023-05-21T10:08:34;18.83;;;12.75;;
53833;SDS011;39735;51.432;5.482;2023-05-21T10:12:01;20.23;;;12.60;;
53833;SDS011;39735;51.432;5.482;2023-05-21T10:15:27;17.05;;;13.30;;
53833;SDS011;39735;51.432;5.482;2023-05-21T10:18:53;17.85;;;14.25;;
53833;SDS011;39735;51.432;5.482;2023-05-21T10:22:18;18.25;;;13.98;;
53833;SDS011;39735;51.432;5.482;2023-05-21T10:25:42;25.17;;;15.40;;
53833;SDS011;39735;51.432;5.482;2023-05-21T10:29:06;18.65;;;12.68;;
53833;SDS011;39735;51.432;5.482;2023-05-21T10:35:57;19.10;;;15.60;;
53833;SDS011;39735;51.432;5.482;2023-05-21T10:39:21;35.63;;;17.50;;
53833;SDS011;39735;51.432;5.482;2023-05-21T10:42:55;34.80;;;14.65;;
53833;SDS011;39735;51.432;5.482;2023-05-21T10:57:49;23.67;;;16.00;;
53833;SDS011;39735;51.432;5.482;2023-05-21T11:01:17;26.92;;;16.58;;
53833;SDS011;39735;51.432;5.482;2023-05-21T11:04:45;27.50;;;17.50;;
53833;SDS011;39735;51.432;5.482;2023-05-21T11:11:49;26.90;;;18.20;;
53833;SDS011;39735;51.432;5.482;2023-05-21T11:15:30;30.58;;;15.48;;
53833;SDS011;39735;51.432;5.482;2023-05-21T11:18:58;21.30;;;16.33;;
53833;SDS011;39735;51.432;5.482;2023-05-21T11:22:23;28.35;;;17.05;;
53833;SDS011;39735;51.432;5.482;2023-05-21T11:26:00;23.40;;;16.33;;
53833;SDS011;39735;51.432;5.482;2023-05-21T11:29:39;26.40;;;18.45;;
53833;SDS011;39735;51.432;5.482;2023-05-21T11:36:32;34.00;;;16.42;;
53833;SDS011;39735;51.432;5.482;2023-05-21T11:40:17;32.75;;;20.40;;
53833;SDS011;39735;51.432;5.482;2023-05-21T11:43:42;27.95;;;18.02;;
53833;SDS011;39735;51.432;5.482;2023-05-21T11:47:13;23.60;;;16.38;;
53833;SDS011;39735;51.432;5.482;2023-05-21T11:50:37;40.30;;;21.98;;
53833;SDS011;39735;51.432;5.482;2023-05-21T11:54:01;29.27;;;17.13;;
53833;SDS011;39735;51.432;5.482;2023-05-21T11:57:26;23.15;;;18.10;;
53833;SDS011;39735;51.432;5.482;2023-05-21T12:00:50;30.75;;;19.27;;
53833;SDS011;39735;51.432;5.482;2023-05-21T12:04:14;37.28;;;18.73;;
53833;SDS011;39735;51.432;5.482;2023-05-21T12:07:38;28.35;;;16.05;;
53833;SDS011;39735;51.432;5.482;2023-05-21T12:11:02;27.58;;;19.20;;
53833;SDS011;39735;51.432;5.482;2023-05-21T12:14:26;29.88;;;19.85;;
53833;SDS011;39735;51.432;5.482;2023-05-21T12:17:50;45.03;;;18.38;;
53833;SDS011;39735;51.432;5.482;2023-05-21T12:21:14;23.67;;;18.80;;
53833;SDS011;39735;51.432;5.482;2023-05-21T12:24:40;21.73;;;16.92;;
53833;SDS011;39735;51.432;5.482;2023-05-21T12:28:04;33.00;;;19.20;;
53833;SDS011;39735;51.432;5.482;2023-05-21T12:31:28;27.33;;;18.30;;
53833;SDS011;39735;51.432;5.482;2023-05-21T12:34:53;37.73;;;17.27;;
53833;SDS011;39735;51.432;5.482;2023-05-21T12:38:17;31.23;;;17.90;;
53833;SDS011;39735;51.432;5.482;2023-05-21T12:41:41;26.85;;;16.40;;
53833;SDS011;39735;51.432;5.482;2023-05-21T12:45:06;23.80;;;20.60;;
53833;SDS011;39735;51.432;5.482;2023-05-21T12:48:30;39.95;;;18.42;;
53833;SDS011;39735;51.432;5.482;2023-05-21T12:51:55;30.80;;;16.83;;
53833;SDS011;39735;51.432;5.482;2023-05-21T12:58:46;40.53;;;19.42;;
53833;SDS011;39735;51.432;5.482;2023-05-21T13:02:36;34.92;;;19.38;;
53833;SDS011;39735;51.432;5.482;2023-05-21T13:05:57;25.13;;;17.33;;
53833;SDS011;39735;51.432;5.482;2023-05-21T13:09:21;28.48;;;18.83;;
53833;SDS011;39735;51.432;5.482;2023-05-21T13:12:45;35.85;;;21.10;;
53833;SDS011;39735;51.432;5.482;2023-05-21T13:16:09;40.20;;;20.05;;
53833;SDS011;39735;51.432;5.482;2023-05-21T13:19:34;20.15;;;17.20;;
53833;SDS011;39735;51.432;5.482;2023-05-21T13:22:58;26.23;;;17.25;;
53833;SDS011;39735;51.432;5.482;2023-05-21T13:26:21;23.20;;;16.88;;
53833;SDS011;39735;51.432;5.482;2023-05-21T13:29:45;31.58;;;19.10;;
53833;SDS011;39735;51.432;5.482;2023-05-21T13:33:09;27.70;;;17.40;;
53833;SDS011;39735;51.432;5.482;2023-05-21T13:36:36;30.40;;;17.77;;
53833;SDS011;39735;51.432;5.482;2023-05-21T13:40:04;33.47;;;18.40;;
53833;SDS011;39735;51.432;5.482;2023-05-21T13:43:28;29.35;;;18.25;;
53833;SDS011;39735;51.432;5.482;2023-05-21T13:46:52;27.08;;;17.67;;
53833;SDS011;39735;51.432;5.482;2023-05-21T13:50:16;30.40;;;16.92;;
53833;SDS011;39735;51.432;5.482;2023-05-21T13:53:40;19.52;;;16.52;;
53833;SDS011;39735;51.432;5.482;2023-05-21T13:57:04;31.55;;;17.00;;
53833;SDS011;39735;51.432;5.482;2023-05-21T14:00:28;25.13;;;16.67;;
53833;SDS011;39735;51.432;5.482;2023-05-21T14:03:52;28.58;;;17.67;;
53833;SDS011;39735;51.432;5.482;2023-05-21T14:07:16;24.63;;;15.90;;
53833;SDS011;39735;51.432;5.482;2023-05-21T14:10:43;37.38;;;19.75;;
53833;SDS011;39735;51.432;5.482;2023-05-21T14:14:07;45.60;;;20.98;;
53833;SDS011;39735;51.432;5.482;2023-05-21T14:17:31;22.80;;;16.45;;
53833;SDS011;39735;51.432;5.482;2023-05-21T14:20:55;17.73;;;15.10;;
53833;SDS011;39735;51.432;5.482;2023-05-21T14:24:20;24.00;;;17.67;;
53833;SDS011;39735;51.432;5.482;2023-05-21T14:27:44;32.97;;;17.50;;
53833;SDS011;39735;51.432;5.482;2023-05-21T14:31:08;44.70;;;18.17;;
53833;SDS011;39735;51.432;5.482;2023-05-21T14:34:32;38.10;;;18.70;;
53833;SDS011;39735;51.432;5.482;2023-05-21T14:37:56;30.00;;;16.35;;
53833;SDS011;39735;51.432;5.482;2023-05-21T14:41:22;29.95;;;15.93;;
53833;SDS011;39735;51.432;5.482;2023-05-21T14:44:46;29.08;;;18.25;;
53833;SDS011;39735;51.432;5.482;2023-05-21T14:48:10;22.73;;;15.10;;
53833;SDS011;39735;51.432;5.482;2023-05-21T14:51:35;25.48;;;16.45;;
53833;SDS011;39735;51.432;5.482;2023-05-21T14:54:59;25.73;;;14.52;;
53833;SDS011;39735;51.432;5.482;2023-05-21T14:58:23;25.35;;;16.42;;
53833;SDS011;39735;51.432;5.482;2023-05-21T15:01:47;20.90;;;14.88;;
53833;SDS011;39735;51.432;5.482;2023-05-21T15:05:11;18.90;;;15.27;;
53833;SDS011;39735;51.432;5.482;2023-05-21T15:08:35;22.48;;;16.27;;
53833;SDS011;39735;51.432;5.482;2023-05-21T15:11:59;24.25;;;16.63;;
53833;SDS011;39735;51.432;5.482;2023-05-21T15:15:23;35.35;;;16.70;;
53833;SDS011;39735;51.432;5.482;2023-05-21T15:18:47;22.83;;;15.52;;
53833;SDS011;39735;51.432;5.482;2023-05-21T15:22:11;23.98;;;15.35;;
53833;SDS011;39735;51.432;5.482;2023-05-21T15:25:35;34.53;;;17.80;;
53833;SDS011;39735;51.432;5.482;2023-05-21T15:28:58;21.63;;;16.52;;
53833;SDS011;39735;51.432;5.482;2023-05-21T15:32:22;27.05;;;12.68;;
53833;SDS011;39735;51.432;5.482;2023-05-21T15:35:46;25.35;;;14.40;;
53833;SDS011;39735;51.432;5.482;2023-05-21T15:39:10;19.70;;;16.40;;
53833;SDS011;39735;51.432;5.482;2023-05-21T15:42:35;22.08;;;16.35;;
53833;SDS011;39735;51.432;5.482;2023-05-21T15:45:59;23.02;;;17.17;;
53833;SDS011;39735;51.432;5.482;2023-05-21T15:49:23;30.02;;;15.52;;
53833;SDS011;39735;51.432;5.482;2023-05-21T15:52:47;18.55;;;14.05;;
53833;SDS011;39735;51.432;5.482;2023-05-21T15:56:10;15.73;;;14.05;;
53833;SDS011;39735;51.432;5.482;2023-05-21T15:59:34;26.30;;;16.02;;
53833;SDS011;39735;51.432;5.482;2023-05-21T16:02:58;57.47;;;17.60;;
53833;SDS011;39735;51.432;5.482;2023-05-21T16:06:22;22.65;;;14.93;;
53833;SDS011;39735;51.432;5.482;2023-05-21T16:09:47;30.02;;;18.23;;
53833;SDS011;39735;51.432;5.482;2023-05-21T16:13:11;23.73;;;16.35;;
53833;SDS011;39735;51.432;5.482;2023-05-21T16:16:35;21.92;;;14.82;;
53833;SDS011;39735;51.432;5.482;2023-05-21T16:19:59;22.27;;;14.38;;
53833;SDS011;39735;51.432;5.482;2023-05-21T16:23:23;37.33;;;16.70;;
53833;SDS011;39735;51.432;5.482;2023-05-21T16:26:47;27.23;;;14.40;;
53833;SDS011;39735;51.432;5.482;2023-05-21T16:30:11;20.13;;;14.15;;
53833;SDS011;39735;51.432;5.482;2023-05-21T16:33:36;29.48;;;17.65;;
53833;SDS011;39735;51.432;5.482;2023-05-21T16:37:01;41.15;;;16.70;;
53833;SDS011;39735;51.432;5.482;2023-05-21T16:40:25;18.67;;;15.85;;
53833;SDS011;39735;51.432;5.482;2023-05-21T16:43:49;38.30;;;16.02;;
53833;SDS011;39735;51.432;5.482;2023-05-21T16:47:13;28.52;;;15.95;;
53833;SDS011;39735;51.432;5.482;2023-05-21T16:50:38;20.42;;;13.48;;
53833;SDS011;39735;51.432;5.482;2023-05-21T16:54:02;25.45;;;14.70;;
53833;SDS011;39735;51.432;5.482;2023-05-21T16:57:26;23.02;;;15.75;;
53833;SDS011;39735;51.432;5.482;2023-05-21T17:00:50;29.67;;;15.07;;
53833;SDS011;39735;51.432;5.482;2023-05-21T17:04:14;37.03;;;16.27;;
53833;SDS011;39735;51.432;5.482;2023-05-21T17:07:37;20.98;;;16.08;;
53833;SDS011;39735;51.432;5.482;2023-05-21T17:11:01;26.83;;;15.45;;
53833;SDS011;39735;51.432;5.482;2023-05-21T17:14:25;18.60;;;14.57;;
53833;SDS011;39735;51.432;5.482;2023-05-21T17:17:50;17.83;;;14.90;;
53833;SDS011;39735;51.432;5.482;2023-05-21T17:21:14;24.95;;;16.23;;
53833;SDS011;39735;51.432;5.482;2023-05-21T17:24:38;20.25;;;14.48;;
53833;SDS011;39735;51.432;5.482;2023-05-21T17:28:02;17.35;;;14.55;;
53833;SDS011;39735;51.432;5.482;2023-05-21T17:31:26;16.55;;;14.88;;
53833;SDS011;39735;51.432;5.482;2023-05-21T17:34:50;26.42;;;15.65;;
53833;SDS011;39735;51.432;5.482;2023-05-21T17:38:14;22.92;;;15.05;;
53833;SDS011;39735;51.432;5.482;2023-05-21T17:41:38;25.05;;;16.42;;
53833;SDS011;39735;51.432;5.482;2023-05-21T17:45:02;27.73;;;16.17;;
53833;SDS011;39735;51.432;5.482;2023-05-21T17:48:26;22.05;;;16.40;;
53833;SDS011;39735;51.432;5.482;2023-05-21T17:51:50;20.88;;;15.18;;
53833;SDS011;39735;51.432;5.482;2023-05-21T17:55:14;19.95;;;16.00;;
53833;SDS011;39735;51.432;5.482;2023-05-21T17:58:38;18.52;;;16.08;;
53833;SDS011;39735;51.432;5.482;2023-05-21T18:02:04;27.77;;;15.73;;
53833;SDS011;39735;51.432;5.482;2023-05-21T18:05:28;22.00;;;14.68;;
53833;SDS011;39735;51.432;5.482;2023-05-21T18:08:53;21.98;;;15.18;;
53833;SDS011;39735;51.432;5.482;2023-05-21T18:12:17;21.05;;;15.77;;
53833;SDS011;39735;51.432;5.482;2023-05-21T18:15:40;16.95;;;14.20;;
53833;SDS011;39735;51.432;5.482;2023-05-21T18:19:04;19.13;;;14.65;;
53833;SDS011;39735;51.432;5.482;2023-05-21T18:22:29;26.88;;;15.73;;
53833;SDS011;39735;51.432;5.482;2023-05-21T18:25:54;26.98;;;15.30;;
53833;SDS011;39735;51.432;5.482;2023-05-21T18:29:18;20.85;;;16.42;;
53833;SDS011;39735;51.432;5.482;2023-05-21T18:32:42;26.00;;;14.82;;
53833;SDS011;39735;51.432;5.482;2023-05-21T18:36:06;37.72;;;16.48;;
53833;SDS011;39735;51.432;5.482;2023-05-21T18:39:30;23.13;;;16.92;;
53833;SDS011;39735;51.432;5.482;2023-05-21T18:42:54;22.13;;;16.60;;
53833;SDS011;39735;51.432;5.482;2023-05-21T18:46:18;32.20;;;15.57;;
53833;SDS011;39735;51.432;5.482;2023-05-21T18:49:42;30.48;;;16.13;;
53833;SDS011;39735;51.432;5.482;2023-05-21T18:53:06;20.58;;;15.57;;
53833;SDS011;39735;51.432;5.482;2023-05-21T18:56:32;22.65;;;15.45;;
53833;SDS011;39735;51.432;5.482;2023-05-21T18:59:58;29.40;;;15.77;;
53833;SDS011;39735;51.432;5.482;2023-05-21T19:03:22;26.50;;;16.02;;
53833;SDS011;39735;51.432;5.482;2023-05-21T19:06:46;33.58;;;16.90;;
53833;SDS011;39735;51.432;5.482;2023-05-21T19:10:10;29.30;;;15.77;;
53833;SDS011;39735;51.432;5.482;2023-05-21T19:13:34;19.27;;;15.85;;
53833;SDS011;39735;51.432;5.482;2023-05-21T19:16:58;19.85;;;15.00;;
53833;SDS011;39735;51.432;5.482;2023-05-21T19:20:22;30.58;;;16.25;;
53833;SDS011;39735;51.432;5.482;2023-05-21T19:23:47;26.63;;;16.67;;
53833;SDS011;39735;51.432;5.482;2023-05-21T19:27:12;25.40;;;15.25;;
53833;SDS011;39735;51.432;5.482;2023-05-21T19:31:10;16.65;;;13.15;;
53833;SDS011;39735;51.432;5.482;2023-05-21T19:34:35;15.35;;;11.57;;
53833;SDS011;39735;51.432;5.482;2023-05-21T19:38:00;26.83;;;11.90;;
53833;SDS011;39735;51.432;5.482;2023-05-21T19:41:23;18.98;;;8.95;;
53833;SDS011;39735;51.432;5.482;2023-05-21T19:44:47;15.10;;;9.10;;
53833;SDS011;39735;51.432;5.482;2023-05-21T19:48:11;13.55;;;9.57;;
53833;SDS011;39735;51.432;5.482;2023-05-21T19:51:37;16.63;;;9.45;;
53833;SDS011;39735;51.432;5.482;2023-05-21T19:55:02;12.80;;;10.60;;
53833;SDS011;39735;51.432;5.482;2023-05-21T19:58:26;22.02;;;9.85;;
53833;SDS011;39735;51.432;5.482;2023-05-21T20:01:50;16.33;;;9.35;;
53833;SDS011;39735;51.432;5.482;2023-05-21T20:05:16;19.48;;;10.05;;
53833;SDS011;39735;51.432;5.482;2023-05-21T20:08:42;13.85;;;8.45;;
53833;SDS011;39735;51.432;5.482;2023-05-21T20:12:07;12.88;;;10.35;;
53833;SDS011;39735;51.432;5.482;2023-05-21T20:15:32;15.68;;;9.70;;
53833;SDS011;39735;51.432;5.482;2023-05-21T20:18:57;23.08;;;10.25;;
53833;SDS011;39735;51.432;5.482;2023-05-21T20:22:22;21.08;;;11.32;;
53833;SDS011;39735;51.432;5.482;2023-05-21T20:25:46;32.08;;;10.32;;
53833;SDS011;39735;51.432;5.482;2023-05-21T20:29:13;15.82;;;8.95;;
53833;SDS011;39735;51.432;5.482;2023-05-21T20:32:37;22.58;;;11.05;;
53833;SDS011;39735;51.432;5.482;2023-05-21T20:36:05;17.75;;;10.75;;
53833;SDS011;39735;51.432;5.482;2023-05-21T20:39:29;21.55;;;8.57;;